createdAt,value
2024-05-09T00:00:22.549Z,101423.40
2024-05-09T00:03:23.991Z,101417.80
2024-05-09T00:05:57.654Z,101413.20
2024-05-09T00:08:31.533Z,101412.00
2024-05-09T00:11:05.835Z,101414.80
2024-05-09T00:13:39.658Z,101419.80
2024-05-09T00:16:13.579Z,101411.40
2024-05-09T00:18:47.284Z,101414.60
2024-05-09T00:21:20.926Z,101405.80
2024-05-09T00:23:54.919Z,101405.20
2024-05-09T00:26:28.717Z,101407.80
2024-05-09T00:29:02.754Z,101411.20
2024-05-09T00:31:36.421Z,101413.40
2024-05-09T00:34:10.300Z,101412.80
2024-05-09T00:36:44.324Z,101412.80
2024-05-09T00:39:18.265Z,101413.40
2024-05-09T00:41:51.946Z,101407.00
2024-05-09T00:44:26.028Z,101408.20
2024-05-09T00:47:00.238Z,101409.80
2024-05-09T00:49:34.864Z,101409.00
2024-05-09T00:52:11.755Z,101411.20
2024-05-09T00:54:45.385Z,101414.60
2024-05-09T00:57:19.700Z,101412.40
2024-05-09T00:59:54.637Z,101409.40
2024-05-09T01:02:29.026Z,101401.60
2024-05-09T01:05:03.159Z,101402.00
2024-05-09T01:07:37.150Z,101398.40
2024-05-09T01:10:17.130Z,101402.00
2024-05-09T01:12:54.726Z,101402.00
2024-05-09T01:15:28.371Z,101399.80
2024-05-09T01:18:04.869Z,101397.80
2024-05-09T01:20:42.459Z,101401.00
2024-05-09T01:23:18.359Z,101398.00
2024-05-09T01:25:51.953Z,101396.00
2024-05-09T01:28:25.638Z,101390.80
2024-05-09T01:30:59.369Z,101398.40
2024-05-09T01:33:33.661Z,101401.00
2024-05-09T01:36:08.469Z,101402.20
2024-05-09T01:38:42.117Z,101395.60
2024-05-09T01:41:16.259Z,101401.60
2024-05-09T01:43:49.873Z,101404.80
2024-05-09T01:46:23.561Z,101405.40
2024-05-09T01:48:57.664Z,101404.40
2024-05-09T01:51:31.330Z,101409.80
2024-05-09T01:54:05.258Z,101411.00
2024-05-09T01:56:39.048Z,101410.80
2024-05-09T01:59:12.753Z,101414.60
2024-05-09T02:01:56.510Z,101421.80
2024-05-09T02:04:31.528Z,101416.60
2024-05-09T02:07:06.976Z,101415.60
2024-05-09T02:09:40.705Z,101416.20
2024-05-09T02:12:14.140Z,101414.20
2024-05-09T02:14:48.009Z,101413.80
2024-05-09T02:17:21.863Z,101415.00
2024-05-09T02:19:56.034Z,101416.40
2024-05-09T02:22:29.756Z,101422.20
2024-05-09T02:25:03.451Z,101415.80
2024-05-09T02:27:37.264Z,101416.00
2024-05-09T02:30:18.973Z,101418.20
2024-05-09T02:32:59.951Z,101420.60
2024-05-09T02:35:33.809Z,101420.60
2024-05-09T02:38:07.827Z,101426.20
2024-05-09T02:40:41.474Z,101422.20
2024-05-09T02:43:15.770Z,101427.60
2024-05-09T02:45:49.458Z,101430.80
2024-05-09T02:48:23.570Z,101426.40
2024-05-09T02:50:57.479Z,101425.40
2024-05-09T02:53:31.213Z,101425.40
2024-05-09T02:56:05.014Z,101428.00
2024-05-09T02:58:38.725Z,101429.80
2024-05-09T03:01:12.448Z,101429.60
2024-05-09T03:03:50.324Z,101432.60
2024-05-09T03:06:24.147Z,101436.20
2024-05-09T03:08:58.190Z,101432.40
2024-05-09T03:11:32.186Z,101436.00
2024-05-09T03:14:06.259Z,101432.40
2024-05-09T03:16:43.059Z,101431.40
2024-05-09T03:19:16.947Z,101434.80
2024-05-09T03:21:50.896Z,101439.40
2024-05-09T03:24:24.658Z,101439.00
2024-05-09T03:26:58.409Z,101445.80
2024-05-09T03:29:32.144Z,101445.60
2024-05-09T03:32:06.575Z,101450.20
2024-05-09T03:34:41.505Z,101456.20
2024-05-09T03:37:15.658Z,101454.00
2024-05-09T03:39:49.338Z,101454.60
2024-05-09T03:42:23.107Z,101453.60
2024-05-09T03:44:56.869Z,101454.20
2024-05-09T03:47:32.261Z,101453.60
2024-05-09T03:50:14.975Z,101452.40
2024-05-09T03:52:52.455Z,101453.00
2024-05-09T03:55:26.121Z,101450.80
2024-05-09T03:57:59.908Z,101450.00
2024-05-09T04:00:38.133Z,101454.80
2024-05-09T04:03:13.851Z,101457.60
2024-05-09T04:05:48.590Z,101459.00
2024-05-09T04:08:22.202Z,101455.00
2024-05-09T04:10:55.804Z,101455.60
2024-05-09T04:13:29.414Z,101454.00
2024-05-09T04:16:03.018Z,101456.40
2024-05-09T04:18:36.640Z,101455.00
2024-05-09T04:21:11.009Z,101454.60
2024-05-09T04:23:44.823Z,101454.00
2024-05-09T04:26:18.509Z,101456.60
2024-05-09T04:28:52.248Z,101450.80
2024-05-09T04:31:29.327Z,101451.40
2024-05-09T04:34:03.217Z,101450.80
2024-05-09T04:36:37.700Z,101450.60
2024-05-09T04:39:12.221Z,101447.60
2024-05-09T04:41:46.053Z,101449.20
2024-05-09T04:44:19.709Z,101453.20
2024-05-09T04:46:53.261Z,101454.00
2024-05-09T04:49:27.107Z,101449.80
2024-05-09T04:52:00.959Z,101453.20
2024-05-09T04:54:36.602Z,101447.80
2024-05-09T04:57:10.770Z,101445.80
2024-05-09T04:59:44.589Z,101444.20
2024-05-09T05:02:18.491Z,101447.00
2024-05-09T05:04:52.556Z,101444.60
2024-05-09T05:07:26.848Z,101443.80
2024-05-09T05:10:00.967Z,101439.80
2024-05-09T05:12:52.484Z,101432.60
2024-05-09T05:15:26.227Z,101428.00
2024-05-09T05:18:00.460Z,101425.60
2024-05-09T05:20:34.547Z,101422.80
2024-05-09T05:23:13.530Z,101422.20
2024-05-09T05:25:48.675Z,101424.00
2024-05-09T05:28:22.885Z,101427.40
2024-05-09T05:30:58.342Z,101423.20
2024-05-09T05:33:32.062Z,101418.40
2024-05-09T05:36:06.661Z,101419.00
2024-05-09T05:38:40.428Z,101418.00
2024-05-09T05:41:14.404Z,101416.40
2024-05-09T05:43:48.046Z,101418.60
2024-05-09T05:46:21.668Z,101414.80
2024-05-09T05:48:55.253Z,101415.80
2024-05-09T05:51:28.818Z,101409.20
2024-05-09T05:54:02.273Z,101407.60
2024-05-09T05:56:36.337Z,101408.40
2024-05-09T05:59:11.975Z,101406.00
2024-05-09T06:01:47.493Z,101406.80
2024-05-09T06:04:21.352Z,101413.40
2024-05-09T06:06:55.061Z,101411.20
2024-05-09T06:09:28.570Z,101408.20
2024-05-09T06:12:02.135Z,101412.20
2024-05-09T06:14:35.969Z,101407.00
2024-05-09T06:17:10.158Z,101408.00
2024-05-09T06:19:44.356Z,101407.80
2024-05-09T06:22:18.091Z,101411.20
2024-05-09T06:24:51.696Z,101415.40
2024-05-09T06:27:26.139Z,101411.80
2024-05-09T06:29:59.731Z,101411.60
2024-05-09T06:32:33.490Z,101420.00
2024-05-09T06:35:11.127Z,101409.60
2024-05-09T06:37:51.283Z,101406.80
2024-05-09T06:40:29.745Z,101401.20
2024-05-09T06:43:17.574Z,101409.60
2024-05-09T06:45:54.550Z,101400.40
2024-05-09T06:48:29.886Z,101401.80
2024-05-09T06:51:03.848Z,101399.40
2024-05-09T06:53:40.487Z,101395.20
2024-05-09T06:56:15.109Z,101394.40
2024-05-09T06:58:48.635Z,101393.40
2024-05-09T07:01:22.463Z,101391.20
2024-05-09T07:03:56.142Z,101389.60
2024-05-09T07:06:30.318Z,101389.80
2024-05-09T07:09:03.788Z,101391.40
2024-05-09T07:11:38.123Z,101390.80
2024-05-09T07:14:11.901Z,101386.00
2024-05-09T07:16:45.658Z,101387.00
2024-05-09T07:19:20.109Z,101388.00
2024-05-09T07:21:53.959Z,101380.00
2024-05-09T07:24:27.530Z,101377.40
2024-05-09T07:27:01.024Z,101372.40
2024-05-09T07:29:37.884Z,101367.20
2024-05-09T07:32:12.281Z,101372.60
2024-05-09T07:34:46.283Z,101373.00
2024-05-09T07:37:20.172Z,101366.60
2024-05-09T07:39:53.756Z,101370.80
2024-05-09T07:42:27.235Z,101369.00
2024-05-09T07:45:20.598Z,101365.60
2024-05-09T07:49:43.976Z,101363.00
2024-05-09T07:56:00.851Z,101358.20
2024-05-09T07:58:34.988Z,101362.60
2024-05-09T08:01:09.407Z,101362.40
2024-05-09T08:03:43.503Z,101354.00
2024-05-09T08:06:17.134Z,101353.20
2024-05-09T08:08:51.695Z,101355.80
2024-05-09T08:11:25.312Z,101354.40
2024-05-09T08:13:59.283Z,101355.20
2024-05-09T08:16:32.928Z,101357.40
2024-05-09T08:19:07.499Z,101359.80
2024-05-09T08:21:41.385Z,101367.00
2024-05-09T08:24:14.814Z,101362.40
2024-05-09T08:26:48.615Z,101365.80
2024-05-09T08:29:22.224Z,101365.40
2024-05-09T08:31:58.744Z,101365.80
2024-05-09T08:34:32.428Z,101363.40
2024-05-09T08:37:13.141Z,101366.40
2024-05-09T08:39:54.111Z,101363.20
2024-05-09T08:42:31.401Z,101364.80
2024-05-09T08:45:07.542Z,101370.00
2024-05-09T08:47:41.875Z,101367.20
2024-05-09T08:50:31.574Z,101361.40
2024-05-09T08:53:14.455Z,101355.80
2024-05-09T08:55:52.733Z,101347.80
2024-05-09T08:58:30.561Z,101342.20
2024-05-09T09:01:05.386Z,101344.80
2024-05-09T09:03:41.287Z,101346.00
2024-05-09T09:06:18.128Z,101342.60
2024-05-09T09:08:53.298Z,101343.60
2024-05-09T09:11:27.391Z,101346.00
2024-05-09T09:14:03.718Z,101346.00
2024-05-09T09:16:38.483Z,101343.80
2024-05-09T09:19:12.342Z,101343.80
2024-05-09T09:21:46.438Z,101340.80
2024-05-09T09:24:20.846Z,101343.00
2024-05-09T09:26:59.364Z,101343.40
2024-05-09T09:29:35.321Z,101351.60
2024-05-09T09:32:11.503Z,101344.60
2024-05-09T09:34:48.508Z,101348.00
2024-05-09T09:37:29.754Z,101343.80
2024-05-09T09:40:08.927Z,101343.00
2024-05-09T09:42:44.844Z,101333.60
2024-05-09T09:45:22.311Z,101335.80
2024-05-09T09:48:00.196Z,101331.80
2024-05-09T09:50:36.808Z,101328.40
2024-05-09T09:53:13.070Z,101328.80
2024-05-09T09:55:49.323Z,101319.60
2024-05-09T09:58:25.089Z,101320.00
2024-05-09T10:00:59.985Z,101321.40
2024-05-09T10:03:35.967Z,101325.60
2024-05-09T10:06:12.496Z,101324.80
2024-05-09T10:08:49.274Z,101319.40
2024-05-09T10:11:25.659Z,101316.20
2024-05-09T10:14:03.949Z,101314.20
2024-05-09T10:16:44.262Z,101315.80
2024-05-09T10:19:29.434Z,101313.60
2024-05-09T10:22:09.027Z,101316.80
2024-05-09T10:24:53.955Z,101313.80
2024-05-09T10:27:52.971Z,101316.00
2024-05-09T10:30:36.364Z,101315.80
2024-05-09T10:33:14.443Z,101314.80
2024-05-09T10:35:56.283Z,101312.60
2024-05-09T10:38:30.731Z,101306.80
2024-05-09T10:41:04.910Z,101312.60
2024-05-09T10:43:42.605Z,101315.80
2024-05-09T10:46:18.770Z,101311.20
2024-05-09T10:48:53.310Z,101306.80
2024-05-09T10:51:27.441Z,101300.80
2024-05-09T10:54:02.260Z,101300.00
2024-05-09T10:56:36.830Z,101306.20
2024-05-09T10:59:10.313Z,101306.60
2024-05-09T11:01:44.748Z,101300.00
2024-05-09T11:04:19.404Z,101295.20
2024-05-09T11:06:53.347Z,101292.00
2024-05-09T11:09:27.664Z,101294.40
2024-05-09T11:12:01.834Z,101290.60
2024-05-09T11:14:36.007Z,101287.40
2024-05-09T11:17:11.268Z,101285.80
2024-05-09T11:19:46.599Z,101295.20
2024-05-09T11:22:21.496Z,101293.40
2024-05-09T11:24:56.726Z,101292.20
2024-05-09T11:27:32.864Z,101286.40
2024-05-09T11:30:24.298Z,101284.60
2024-05-09T11:33:05.114Z,101280.20
2024-05-09T11:35:38.641Z,101280.20
2024-05-09T11:38:12.872Z,101271.00
2024-05-09T11:40:47.082Z,101273.60
2024-05-09T11:43:20.849Z,101274.80
2024-05-09T11:45:55.561Z,101261.60
2024-05-09T11:48:29.838Z,101266.80
2024-05-09T11:51:03.636Z,101266.00
2024-05-09T11:53:37.729Z,101263.40
2024-05-09T11:56:14.737Z,101257.80
2024-05-09T11:58:48.466Z,101259.80
2024-05-09T12:01:23.707Z,101252.60
2024-05-09T12:03:59.455Z,101256.60
2024-05-09T12:06:33.627Z,101250.40
2024-05-09T12:09:07.574Z,101247.60
2024-05-09T12:11:41.397Z,101253.60
2024-05-09T12:14:15.008Z,101251.40
2024-05-09T12:16:50.474Z,101253.20
2024-05-09T12:19:24.206Z,101253.80
2024-05-09T12:21:59.660Z,101253.00
2024-05-09T12:24:33.777Z,101248.00
2024-05-09T12:27:08.786Z,101246.40
2024-05-09T12:29:42.516Z,101245.20
2024-05-09T12:32:16.697Z,101245.60
2024-05-09T12:34:50.752Z,101243.60
2024-05-09T12:37:24.557Z,101244.60
2024-05-09T12:39:58.191Z,101248.40
2024-05-09T12:42:33.728Z,101250.00
2024-05-09T12:45:09.448Z,101246.20
2024-05-09T12:47:43.716Z,101253.60
2024-05-09T12:50:25.125Z,101250.60
2024-05-09T12:53:05.620Z,101248.00
2024-05-09T12:55:47.951Z,101239.80
2024-05-09T12:58:27.968Z,101230.40
2024-05-09T13:01:01.967Z,101219.40
2024-05-09T13:03:36.194Z,101214.60
2024-05-09T13:06:10.357Z,101206.00
2024-05-09T13:08:44.277Z,101204.80
2024-05-09T13:11:18.031Z,101206.80
2024-05-09T13:13:52.008Z,101198.80
2024-05-09T13:16:26.329Z,101192.80
2024-05-09T13:19:00.573Z,101195.20
2024-05-09T13:21:34.344Z,101189.80
2024-05-09T13:24:09.273Z,101190.80
2024-05-09T13:26:43.571Z,101192.80
2024-05-09T13:29:17.190Z,101192.00
2024-05-09T13:31:51.307Z,101185.40
2024-05-09T13:34:25.416Z,101185.80
2024-05-09T13:37:01.816Z,101180.80
2024-05-09T13:39:36.896Z,101177.00
2024-05-09T13:42:11.158Z,101177.00
2024-05-09T13:44:44.883Z,101175.40
2024-05-09T13:47:18.937Z,101173.40
2024-05-09T13:49:52.701Z,101173.80
2024-05-09T13:52:26.698Z,101182.80
2024-05-09T13:55:00.656Z,101172.20
2024-05-09T13:57:35.278Z,101169.00
2024-05-09T14:00:22.914Z,101163.60
2024-05-09T14:03:05.522Z,101170.00
2024-05-09T14:05:39.529Z,101171.20
2024-05-09T14:08:15.707Z,101171.60
2024-05-09T14:10:52.033Z,101169.40
2024-05-09T14:13:25.755Z,101164.40
2024-05-09T14:15:59.921Z,101158.20
2024-05-09T14:18:34.004Z,101155.80
2024-05-09T14:21:08.047Z,101155.60
2024-05-09T14:23:41.509Z,101151.60
2024-05-09T14:26:15.595Z,101146.80
2024-05-09T14:28:49.289Z,101147.20
2024-05-09T14:31:22.808Z,101147.80
2024-05-09T14:33:56.754Z,101143.20
2024-05-09T14:36:30.510Z,101141.20
2024-05-09T14:39:04.666Z,101133.60
2024-05-09T14:41:38.992Z,101134.20
2024-05-09T14:44:12.604Z,101139.80
2024-05-09T14:46:46.979Z,101134.00
2024-05-09T14:49:20.782Z,101128.20
2024-05-09T14:51:54.915Z,101129.60
2024-05-09T14:54:28.510Z,101122.80
2024-05-09T14:57:02.423Z,101122.40
2024-05-09T14:59:35.994Z,101122.00
2024-05-09T15:02:10.079Z,101125.40
2024-05-09T15:04:44.345Z,101117.40
2024-05-09T15:07:18.466Z,101119.20
2024-05-09T15:09:52.263Z,101118.00
2024-05-09T15:12:26.689Z,101114.40
2024-05-09T15:15:03.478Z,101111.20
2024-05-09T15:17:37.157Z,101114.80
2024-05-09T15:20:17.087Z,101113.60
2024-05-09T15:22:54.179Z,101104.20
2024-05-09T15:25:27.798Z,101103.80
2024-05-09T15:28:02.811Z,101100.80
2024-05-09T15:30:36.833Z,101096.40
2024-05-09T15:33:11.673Z,101097.00
2024-05-09T15:35:46.482Z,101092.40
2024-05-09T15:38:20.938Z,101089.60
2024-05-09T15:40:54.943Z,101081.60
2024-05-09T15:43:28.826Z,101082.20
2024-05-09T15:46:03.019Z,101077.40
2024-05-09T15:48:37.811Z,101074.40
2024-05-09T15:51:13.105Z,101072.20
2024-05-09T15:53:46.740Z,101070.60
2024-05-09T15:56:20.995Z,101064.00
2024-05-09T15:58:54.760Z,101068.20
2024-05-09T16:01:28.803Z,101067.80
2024-05-09T16:04:03.128Z,101063.80
2024-05-09T16:06:37.738Z,101069.00
2024-05-09T16:09:13.762Z,101066.80
2024-05-09T16:11:47.596Z,101064.00
2024-05-09T16:14:21.473Z,101063.20
2024-05-09T16:16:55.880Z,101063.60
2024-05-09T16:19:29.745Z,101062.80
2024-05-09T16:22:03.488Z,101060.60
2024-05-09T16:24:38.073Z,101058.00
2024-05-09T16:27:12.019Z,101058.40
2024-05-09T16:29:46.495Z,101052.40
2024-05-09T16:32:20.020Z,101055.20
2024-05-09T16:34:53.719Z,101054.00
2024-05-09T16:37:29.496Z,101053.20
2024-05-09T16:40:04.545Z,101056.80
2024-05-09T16:42:39.752Z,101055.00
2024-05-09T16:45:13.686Z,101053.40
2024-05-09T16:47:47.758Z,101052.20
2024-05-09T16:50:28.853Z,101054.40
2024-05-09T16:53:07.335Z,101047.60
2024-05-09T16:55:41.371Z,101046.00
2024-05-09T16:58:17.512Z,101053.60
2024-05-09T17:00:51.550Z,101051.00
2024-05-09T17:03:25.750Z,101057.00
2024-05-09T17:06:03.083Z,101055.80
2024-05-09T17:08:37.665Z,101056.80
2024-05-09T17:11:12.236Z,101054.00
2024-05-09T17:13:48.108Z,101054.20
2024-05-09T17:16:23.082Z,101059.40
2024-05-09T17:18:57.231Z,101059.40
2024-05-09T17:21:33.729Z,101060.80
2024-05-09T17:24:08.103Z,101062.80
2024-05-09T17:26:42.002Z,101064.60
2024-05-09T17:29:16.586Z,101063.00
2024-05-09T17:31:50.390Z,101063.20
2024-05-09T17:34:24.955Z,101068.00
2024-05-09T17:37:00.270Z,101072.60
2024-05-09T17:39:34.482Z,101074.40
2024-05-09T17:42:08.872Z,101074.20
2024-05-09T17:44:43.021Z,101072.40
2024-05-09T17:47:16.996Z,101076.60
2024-05-09T17:49:51.101Z,101073.40
2024-05-09T17:52:25.096Z,101079.80
2024-05-09T17:54:59.590Z,101073.60
2024-05-09T17:57:33.757Z,101075.00
2024-05-09T18:00:11.806Z,101081.20
2024-05-09T18:02:48.743Z,101077.80
2024-05-09T18:05:22.838Z,101080.60
2024-05-09T18:07:57.450Z,101079.20
2024-05-09T18:10:36.774Z,101086.60
2024-05-09T18:13:14.172Z,101093.40
2024-05-09T18:15:48.205Z,101089.20
2024-05-09T18:18:22.647Z,101090.00
2024-05-09T18:20:56.517Z,101092.20
2024-05-09T18:23:31.098Z,101096.60
2024-05-09T18:26:05.514Z,101100.60
2024-05-09T18:28:39.930Z,101100.80
2024-05-09T18:31:14.117Z,101106.80
2024-05-09T18:33:48.295Z,101111.80
2024-05-09T18:36:22.305Z,101112.60
2024-05-09T18:38:56.415Z,101112.00
2024-05-09T18:41:30.525Z,101115.20
2024-05-09T18:44:04.613Z,101118.20
2024-05-09T18:46:38.932Z,101120.40
2024-05-09T18:49:13.421Z,101122.40
2024-05-09T18:51:49.555Z,101127.60
2024-05-09T18:54:23.433Z,101131.00
2024-05-09T18:56:57.090Z,101129.60
2024-05-09T18:59:30.949Z,101132.40
2024-05-09T19:02:05.223Z,101136.00
2024-05-09T19:04:39.468Z,101143.40
2024-05-09T19:07:14.428Z,101140.80
2024-05-09T19:09:48.767Z,101150.20
2024-05-09T19:12:22.857Z,101152.20
2024-05-09T19:14:56.789Z,101153.20
2024-05-09T19:17:32.207Z,101154.20
2024-05-09T19:20:11.595Z,101153.20
2024-05-09T19:22:51.745Z,101159.40
2024-05-09T19:25:29.440Z,101158.80
2024-05-09T19:28:04.267Z,101158.00
2024-05-09T19:30:41.693Z,101159.40
2024-05-09T19:33:17.173Z,101165.40
2024-05-09T19:35:51.350Z,101162.20
2024-05-09T19:38:25.479Z,101165.80
2024-05-09T19:40:59.592Z,101163.80
2024-05-09T19:43:36.060Z,101165.00
2024-05-09T19:46:10.978Z,101175.20
2024-05-09T19:48:45.819Z,101172.00
2024-05-09T19:51:20.605Z,101169.40
2024-05-09T19:53:55.183Z,101167.20
2024-05-09T19:56:29.435Z,101173.80
2024-05-09T19:59:04.076Z,101178.20
2024-05-09T20:01:38.339Z,101174.40
2024-05-09T20:04:13.832Z,101181.40
2024-05-09T20:06:48.088Z,101180.40
2024-05-09T20:09:22.796Z,101181.00
2024-05-09T20:11:56.881Z,101177.80
2024-05-09T20:14:31.384Z,101183.20
2024-05-09T20:17:05.600Z,101178.20
2024-05-09T20:19:39.890Z,101178.40
2024-05-09T20:22:14.284Z,101178.80
2024-05-09T20:24:48.533Z,101178.00
2024-05-09T20:27:22.708Z,101183.00
2024-05-09T20:29:57.026Z,101177.60
2024-05-09T20:32:31.159Z,101178.80
2024-05-09T20:35:05.472Z,101178.40
2024-05-09T20:37:39.544Z,101179.80
2024-05-09T20:40:21.764Z,101178.20
2024-05-09T20:43:02.985Z,101185.80
2024-05-09T20:45:37.166Z,101185.40
2024-05-09T20:48:12.732Z,101177.40
2024-05-09T20:50:46.873Z,101178.60
2024-05-09T20:53:23.248Z,101182.40
2024-05-09T20:55:57.278Z,101184.20
2024-05-09T20:58:31.283Z,101185.20
2024-05-09T21:01:05.898Z,101187.80
2024-05-09T21:03:41.995Z,101191.40
2024-05-09T21:06:16.032Z,101184.40
2024-05-09T21:08:49.791Z,101181.20
2024-05-09T21:11:24.880Z,101189.00
2024-05-09T21:13:58.993Z,101189.80
2024-05-09T21:16:34.109Z,101191.00
2024-05-09T21:19:08.317Z,101191.40
2024-05-09T21:21:46.340Z,101196.80
2024-05-09T21:24:20.724Z,101189.20
2024-05-09T21:26:55.107Z,101192.80
2024-05-09T21:29:29.056Z,101188.20
2024-05-09T21:32:02.979Z,101193.00
2024-05-09T21:34:36.754Z,101193.20
2024-05-09T21:37:10.942Z,101186.00
2024-05-09T21:39:45.636Z,101189.60
2024-05-09T21:42:19.459Z,101187.40
2024-05-09T21:44:53.495Z,101191.60
2024-05-09T21:47:27.375Z,101191.40
2024-05-09T21:50:01.286Z,101195.80
2024-05-09T21:52:34.978Z,101188.00
2024-05-09T21:55:09.772Z,101190.40
2024-05-09T21:57:43.627Z,101194.40
2024-05-09T22:00:28.461Z,101194.60
2024-05-09T22:03:10.944Z,101191.60
2024-05-09T22:05:45.842Z,101193.80
2024-05-09T22:08:19.737Z,101193.00
2024-05-09T22:10:53.598Z,101189.20
2024-05-09T22:13:28.619Z,101188.80
2024-05-09T22:16:03.750Z,101186.80
2024-05-09T22:18:38.037Z,101184.40
2024-05-09T22:21:11.755Z,101187.20
2024-05-09T22:23:45.842Z,101186.40
2024-05-09T22:26:19.744Z,101192.80
2024-05-09T22:28:53.398Z,101196.40
2024-05-09T22:31:28.260Z,101194.60
2024-05-09T22:34:02.212Z,101194.20
2024-05-09T22:36:36.287Z,101197.40
2024-05-09T22:39:10.339Z,101197.20
2024-05-09T22:41:45.417Z,101193.40
2024-05-09T22:44:19.098Z,101197.20
2024-05-09T22:46:52.968Z,101187.20
2024-05-09T22:49:26.953Z,101194.60
2024-05-09T22:52:00.610Z,101193.80
2024-05-09T22:54:34.831Z,101195.60
2024-05-09T22:57:09.185Z,101189.80
2024-05-09T22:59:42.808Z,101194.20
2024-05-09T23:02:17.993Z,101191.40
2024-05-09T23:04:51.705Z,101198.00
2024-05-09T23:07:25.542Z,101190.20
2024-05-09T23:09:59.392Z,101190.00
2024-05-09T23:12:33.484Z,101189.00
2024-05-09T23:15:08.728Z,101192.00
2024-05-09T23:17:42.599Z,101186.00
2024-05-09T23:20:25.896Z,101179.80
2024-05-09T23:23:04.066Z,101183.60
2024-05-09T23:25:38.139Z,101172.00
2024-05-09T23:28:12.384Z,101171.80
2024-05-09T23:30:46.283Z,101177.00
2024-05-09T23:33:20.108Z,101176.40
2024-05-09T23:35:53.746Z,101176.00
2024-05-09T23:38:27.732Z,101174.00
2024-05-09T23:41:01.291Z,101173.00
2024-05-09T23:43:36.089Z,101176.20
2024-05-09T23:46:09.902Z,101174.80
2024-05-09T23:48:43.839Z,101172.40
2024-05-09T23:51:18.527Z,101174.80
2024-05-09T23:53:52.347Z,101168.60
2024-05-09T23:56:25.954Z,101169.60
2024-05-09T23:58:59.492Z,101167.40
